Time;durP1;ratioP1;P1;durP2;ratioP2;P2;SDS_P1;SDS_P2;PMS_P1;PMS_P2;Temp;Humidity;BMP_temperature;BMP_pressure;BME280_temperature;BME280_humidity;BME280_pressure;Samples;Min_cycle;Max_cycle;Signal;HPM_P1;HPM_P2
2023/03/19 00:04:12;;;;;;;15.40;8.53;;;10.30;93.10;;;;;;20979194;28;20223;-70
2023/03/19 00:14:14;;;;;;;19.13;9.23;;;10.10;93.50;;;;;;20928829;28;20280;-70
2023/03/19 00:24:16;;;;;;;23.07;13.10;;;10.00;93.90;;;;;;20923559;28;20220;-69
2023/03/19 00:34:18;;;;;;;24.43;11.90;;;9.90;94.40;;;;;;20922282;28;20255;-70
2023/03/19 00:44:20;;;;;;;18.87;10.27;;;9.80;94.60;;;;;;20921572;28;20695;-69
2023/03/19 00:54:21;;;;;;;13.60;7.87;;;9.70;94.70;;;;;;20921014;28;20249;-68
2023/03/19 01:04:23;;;;;;;10.40;6.90;;;9.60;95.00;;;;;;20920178;28;20216;-68
2023/03/19 01:14:25;;;;;;;11.70;6.33;;;9.50;95.20;;;;;;20919384;28;20234;-69
2023/03/19 01:24:30;;;;;;;21.57;7.63;;;9.40;95.40;;;;;;20917894;28;20221;-68
2023/03/19 01:34:32;;;;;;;10.90;6.07;;;9.30;95.40;;;;;;20917632;28;20263;-70
2023/03/19 01:44:36;;;;;;;10.57;6.33;;;9.30;95.50;;;;;;20916976;28;20205;-70
2023/03/19 01:54:39;;;;;;;10.63;6.10;;;9.20;95.70;;;;;;20916332;28;20243;-70
2023/03/19 02:04:44;;;;;;;26.87;11.47;;;9.20;95.80;;;;;;20915385;28;20213;-70
2023/03/19 02:14:46;;;;;;;12.10;6.33;;;9.10;95.90;;;;;;20914778;28;20278;-70
2023/03/19 02:24:54;;;;;;;14.27;7.03;;;9.20;96.10;;;;;;20914379;28;20223;-70
2023/03/19 02:34:55;;;;;;;14.50;6.57;;;9.20;96.10;;;;;;20912979;28;20285;-70
2023/03/19 02:44:57;;;;;;;12.53;6.93;;;9.30;96.10;;;;;;20912626;28;20226;-70
2023/03/19 02:54:59;;;;;;;31.27;12.57;;;9.30;96.00;;;;;;20912403;28;20299;-69
2023/03/19 03:05:00;;;;;;;18.13;8.43;;;9.30;96.00;;;;;;20911767;28;20217;-69
2023/03/19 03:15:02;;;;;;;13.20;8.50;;;9.50;96.30;;;;;;20911624;28;20248;-69
2023/03/19 03:25:04;;;;;;;11.57;7.00;;;9.60;96.60;;;;;;20911760;28;20224;-69
2023/03/19 03:35:07;;;;;;;13.03;7.63;;;9.50;96.60;;;;;;20910914;28;20247;-69
2023/03/19 03:45:11;;;;;;;13.87;8.60;;;9.60;97.00;;;;;;20917399;28;20215;-69
2023/03/19 03:55:12;;;;;;;22.37;10.50;;;9.70;97.20;;;;;;20925179;28;20259;-69
2023/03/19 04:05:15;;;;;;;11.00;7.60;;;9.70;97.40;;;;;;20925136;28;20629;-70
2023/03/19 04:15:17;;;;;;;18.20;9.20;;;;;;;;;;20924012;28;20241;-69
2023/03/19 04:25:19;;;;;;;21.67;11.47;;;9.60;97.80;;;;;;20923221;28;20228;-69
2023/03/19 04:35:21;;;;;;;15.67;7.93;;;9.70;98.00;;;;;;20922703;28;20252;-70
2023/03/19 04:45:23;;;;;;;12.70;7.60;;;9.70;98.20;;;;;;20921668;28;20221;-69
2023/03/19 04:55:25;;;;;;;10.43;7.30;;;9.70;98.50;;;;;;20920491;28;20304;-70
2023/03/19 05:05:27;;;;;;;12.40;7.50;;;9.70;98.70;;;;;;20920370;28;20242;-69
2023/03/19 05:15:29;;;;;;;12.20;6.97;;;;;;;;;;20919101;28;20242;-70
2023/03/19 05:25:34;;;;;;;16.17;8.17;;;9.70;99.00;;;;;;20918480;28;20276;-69
2023/03/19 05:35:36;;;;;;;11.03;6.40;;;9.80;99.10;;;;;;20918130;28;20751;-69
2023/03/19 05:45:39;;;;;;;9.57;5.67;;;9.80;99.50;;;;;;20916971;28;20270;-70
2023/03/19 05:55:41;;;;;;;8.27;3.33;;;10.40;99.10;;;;;;20915773;28;20252;-69
2023/03/19 06:05:43;;;;;;;7.33;3.13;;;10.70;99.30;;;;;;20915167;28;20221;-70
2023/03/19 06:15:47;;;;;;;8.20;4.90;;;10.80;99.30;;;;;;20914578;28;20241;-69
2023/03/19 06:25:49;;;;;;;11.43;5.53;;;10.80;99.30;;;;;;20914214;28;20225;-69
2023/03/19 06:35:51;;;;;;;7.60;5.20;;;11.00;99.60;;;;;;20913477;28;20293;-69
2023/03/19 06:45:52;;;;;;;10.03;5.60;;;11.10;99.70;;;;;;20912508;28;20690;-69
2023/03/19 06:55:54;;;;;;;7.27;5.40;;;11.20;99.90;;;;;;20911852;28;20302;-69
2023/03/19 07:05:56;;;;;;;9.53;5.00;;;11.30;99.90;;;;;;20912005;28;20232;-69
2023/03/19 07:15:59;;;;;;;8.07;5.07;;;11.40;99.90;;;;;;20911460;28;20244;-70
2023/03/19 07:26:00;;;;;;;12.17;5.50;;;11.50;99.90;;;;;;20927844;28;20224;-69
2023/03/19 07:36:02;;;;;;;12.60;6.10;;;11.60;99.90;;;;;;20927284;28;20241;-69
2023/03/19 07:46:05;;;;;;;10.93;6.03;;;11.80;99.90;;;;;;20926372;28;20686;-70
2023/03/19 07:56:06;;;;;;;6.50;3.93;;;12.00;99.90;;;;;;20925326;28;20266;-69
2023/03/19 08:06:08;;;;;;;8.17;4.27;;;12.20;99.90;;;;;;20924897;28;20206;-70
2023/03/19 08:20:20;;;;;;;7.80;4.47;;;12.30;99.90;;;;;;20984454;28;20578;-69
2023/03/19 08:30:21;;;;;;;7.80;4.03;;;12.30;99.90;;;;;;20983452;28;20263;-68
2023/03/19 08:40:23;;;;;;;10.97;4.70;;;12.40;99.90;;;;;;20982876;28;20208;-69
2023/03/19 08:50:26;;;;;;;11.17;4.93;;;12.70;99.90;;;;;;20983649;28;20212;-69
2023/03/19 09:00:28;;;;;;;7.10;4.50;;;13.00;99.90;;;;;;20981227;28;20234;-69
2023/03/19 09:10:29;;;;;;;6.63;4.47;;;13.30;99.90;;;;;;20979866;28;20738;-70
